createdAt,value
2018-12-06T00:00:25.152Z,23.77
2018-12-06T00:02:53.985Z,24.27
2018-12-06T00:05:22.754Z,23.87
2018-12-06T00:08:08.819Z,25.13
2018-12-06T00:10:37.557Z,24.27
2018-12-06T00:13:06.810Z,24.50
2018-12-06T00:15:35.642Z,25.40
2018-12-06T00:18:05.226Z,27.73
2018-12-06T00:20:33.896Z,26.27
2018-12-06T00:23:02.536Z,26.23
2018-12-06T00:25:31.094Z,25.63
2018-12-06T00:27:59.801Z,25.27
2018-12-06T00:30:37.399Z,26.23
2018-12-06T00:33:06.264Z,25.57
2018-12-06T00:35:36.257Z,25.43
2018-12-06T00:38:05.155Z,26.80
2018-12-06T00:40:33.988Z,27.23
2018-12-06T00:43:02.631Z,25.90
2018-12-06T00:45:31.458Z,28.40
2018-12-06T00:47:59.958Z,26.50
2018-12-06T00:50:28.528Z,27.67
2018-12-06T00:52:57.360Z,27.90
2018-12-06T00:55:25.995Z,25.67
2018-12-06T00:57:54.630Z,26.57
2018-12-06T01:00:23.462Z,25.63
2018-12-06T01:02:51.970Z,25.23
2018-12-06T01:05:20.370Z,25.17
2018-12-06T01:07:49.099Z,25.23
2018-12-06T01:10:17.741Z,25.73
2018-12-06T01:12:46.444Z,24.87
2018-12-06T01:15:15.268Z,25.37
2018-12-06T01:17:43.832Z,26.70
2018-12-06T01:20:12.741Z,24.63
2018-12-06T01:22:41.377Z,24.87
2018-12-06T01:25:10.208Z,25.77
2018-12-06T01:27:39.237Z,25.23
2018-12-06T01:30:08.358Z,25.53
2018-12-06T01:32:37.097Z,25.40
2018-12-06T01:35:05.929Z,26.67
2018-12-06T01:37:34.455Z,26.17
2018-12-06T01:40:03.397Z,26.63
2018-12-06T01:42:31.956Z,44.73
2018-12-06T01:45:00.863Z,45.73
2018-12-06T01:47:29.695Z,65.57
2018-12-06T01:49:58.251Z,76.30
2018-12-06T01:52:26.965Z,70.43
2018-12-06T01:54:55.473Z,54.20
2018-12-06T01:57:24.120Z,44.20
2018-12-06T01:59:52.835Z,37.37
2018-12-06T02:02:21.375Z,35.70
2018-12-06T02:04:50.010Z,34.40
2018-12-06T02:07:18.448Z,30.83
2018-12-06T02:09:47.286Z,34.07
2018-12-06T02:12:16.047Z,31.13
2018-12-06T02:14:44.683Z,32.83
2018-12-06T02:17:13.290Z,31.47
2018-12-06T02:19:42.029Z,32.20
2018-12-06T02:22:10.654Z,29.87
2018-12-06T02:24:39.420Z,26.47
2018-12-06T02:27:07.928Z,29.73
2018-12-06T02:33:01.634Z,26.67
2018-12-06T02:35:30.379Z,27.27
2018-12-06T02:37:58.829Z,26.30
2018-12-06T02:40:27.658Z,26.33
2018-12-06T02:42:56.295Z,25.77
2018-12-06T02:45:24.857Z,24.73
2018-12-06T02:47:53.564Z,25.77
2018-12-06T02:50:22.111Z,24.13
2018-12-06T02:52:50.835Z,24.70
2018-12-06T02:55:19.471Z,26.07
2018-12-06T02:57:48.084Z,23.83
2018-12-06T03:00:16.742Z,23.43
2018-12-06T03:02:45.377Z,24.87
2018-12-06T03:05:14.209Z,24.80
2018-12-06T03:07:42.772Z,24.50
2018-12-06T03:10:11.613Z,25.27
2018-12-06T03:12:40.398Z,24.90
2018-12-06T03:15:09.150Z,24.50
2018-12-06T03:17:37.701Z,24.50
2018-12-06T03:20:08.034Z,24.63
2018-12-06T03:22:37.015Z,25.70
2018-12-06T03:25:06.546Z,25.50
2018-12-06T03:27:35.348Z,24.63
2018-12-06T03:30:05.489Z,23.43
2018-12-06T03:32:34.141Z,23.97
2018-12-06T03:35:02.682Z,24.07
2018-12-06T03:37:31.384Z,24.17
2018-12-06T03:39:59.986Z,24.47
2018-12-06T03:42:28.727Z,24.50
2018-12-06T03:44:57.466Z,24.60
2018-12-06T03:47:26.186Z,25.57
2018-12-06T03:49:54.876Z,25.43
2018-12-06T03:52:23.564Z,25.73
2018-12-06T03:54:52.351Z,23.93
2018-12-06T03:57:21.016Z,25.80
2018-12-06T03:59:49.693Z,24.70
2018-12-06T04:02:18.327Z,26.20
2018-12-06T04:04:46.867Z,24.93
2018-12-06T04:07:16.004Z,24.50
2018-12-06T04:09:44.823Z,24.63
2018-12-06T04:12:13.647Z,23.77
2018-12-06T04:14:42.362Z,22.93
2018-12-06T04:17:10.926Z,24.13
2018-12-06T04:19:39.560Z,22.30
2018-12-06T04:22:08.146Z,22.03
2018-12-06T04:24:37.093Z,21.97
2018-12-06T04:27:05.861Z,21.70
2018-12-06T04:29:34.847Z,22.57
2018-12-06T04:32:03.524Z,21.13
2018-12-06T04:34:32.032Z,20.90
2018-12-06T04:37:00.695Z,18.63
2018-12-06T04:39:29.416Z,16.53
2018-12-06T04:41:58.065Z,15.80
2018-12-06T04:44:26.702Z,14.83
2018-12-06T04:46:55.533Z,14.47
2018-12-06T04:49:24.168Z,13.27
2018-12-06T04:51:52.803Z,12.43
2018-12-06T04:54:21.364Z,11.60
2018-12-06T04:56:50.075Z,12.97
2018-12-06T04:59:18.711Z,11.67
2018-12-06T05:01:47.348Z,11.87
2018-12-06T05:04:15.916Z,11.23
2018-12-06T05:06:44.576Z,10.53
2018-12-06T05:09:13.253Z,10.13
2018-12-06T05:11:41.891Z,9.40
2018-12-06T05:14:10.718Z,9.13
2018-12-06T05:16:39.546Z,9.33
2018-12-06T05:19:09.230Z,8.77
2018-12-06T05:21:37.880Z,8.30
2018-12-06T05:24:06.457Z,8.27
2018-12-06T05:26:35.267Z,8.07
2018-12-06T05:29:03.833Z,7.57
2018-12-06T05:31:32.541Z,7.23
2018-12-06T05:34:01.292Z,7.90
2018-12-06T05:36:30.010Z,7.87
2018-12-06T05:38:58.644Z,6.73
2018-12-06T05:41:27.194Z,7.20
2018-12-06T05:43:55.917Z,7.23
2018-12-06T05:46:24.477Z,6.83
2018-12-06T05:48:53.184Z,7.00
2018-12-06T05:51:21.788Z,7.27
2018-12-06T05:53:51.045Z,6.77
2018-12-06T05:56:19.684Z,7.10
2018-12-06T05:58:48.316Z,6.50
2018-12-06T06:01:17.061Z,6.60
2018-12-06T06:03:45.783Z,6.70
2018-12-06T06:06:14.419Z,6.93
2018-12-06T06:08:42.983Z,7.13
2018-12-06T06:11:11.691Z,7.03
2018-12-06T06:13:40.325Z,7.37
2018-12-06T06:16:09.156Z,7.23
2018-12-06T06:18:37.860Z,7.37
2018-12-06T06:21:06.620Z,8.00
2018-12-06T06:23:35.259Z,7.43
2018-12-06T06:26:03.979Z,7.83
2018-12-06T06:28:32.529Z,7.90
2018-12-06T06:31:01.096Z,7.53
2018-12-06T06:33:29.781Z,7.50
2018-12-06T06:35:58.439Z,7.63
2018-12-06T06:38:27.071Z,7.83
2018-12-06T06:40:55.706Z,8.10
2018-12-06T06:43:24.250Z,7.70
2018-12-06T06:45:52.980Z,6.83
2018-12-06T06:48:21.685Z,6.90
2018-12-06T06:50:50.377Z,6.47
2018-12-06T06:53:19.147Z,7.33
2018-12-06T06:55:47.716Z,6.90
2018-12-06T06:58:16.219Z,6.87
2018-12-06T07:00:44.988Z,9.07
2018-12-06T07:03:13.818Z,7.27
2018-12-06T07:05:42.455Z,7.50
2018-12-06T07:08:11.285Z,6.90
2018-12-06T07:10:39.840Z,11.50
2018-12-06T07:13:08.555Z,13.03
2018-12-06T07:15:36.996Z,14.00
2018-12-06T07:18:05.593Z,12.50
2018-12-06T07:20:34.265Z,8.47
2018-12-06T07:23:03.098Z,9.47
2018-12-06T07:25:31.733Z,7.63
2018-12-06T07:28:00.368Z,8.13
2018-12-06T07:30:29.129Z,6.83
2018-12-06T07:32:57.797Z,6.50
2018-12-06T07:35:26.472Z,6.83
2018-12-06T07:37:55.105Z,6.17
2018-12-06T07:40:24.134Z,9.90
2018-12-06T07:42:52.690Z,8.97
2018-12-06T07:45:21.404Z,6.90
2018-12-06T07:47:50.225Z,5.90
2018-12-06T07:50:18.992Z,6.00
2018-12-06T07:52:47.805Z,5.80
2018-12-06T07:55:16.428Z,6.63
2018-12-06T07:57:45.171Z,6.27
2018-12-06T08:00:13.937Z,5.83
2018-12-06T08:02:42.639Z,6.23
2018-12-06T08:05:11.149Z,6.40
2018-12-06T08:07:40.106Z,6.30
2018-12-06T08:10:08.938Z,6.30
2018-12-06T08:12:37.771Z,5.60
2018-12-06T08:15:08.042Z,6.27
2018-12-06T08:17:36.873Z,5.63
2018-12-06T08:20:06.226Z,6.40
2018-12-06T08:22:34.793Z,5.50
2018-12-06T08:25:03.502Z,5.47
2018-12-06T08:27:32.052Z,5.13
2018-12-06T08:30:00.577Z,5.10
2018-12-06T08:32:29.138Z,5.30
2018-12-06T08:34:57.819Z,4.77
2018-12-06T08:37:26.673Z,6.00
2018-12-06T08:39:55.182Z,5.00
2018-12-06T08:42:23.951Z,4.90
2018-12-06T08:44:52.782Z,5.40
2018-12-06T08:47:21.614Z,8.17
2018-12-06T08:49:50.251Z,4.60
2018-12-06T08:52:18.800Z,4.13
2018-12-06T08:54:47.519Z,4.27
2018-12-06T08:57:15.937Z,7.20
2018-12-06T08:59:44.594Z,4.30
2018-12-06T09:02:13.229Z,3.80
2018-12-06T09:04:41.837Z,3.50
2018-12-06T09:07:10.499Z,4.47
2018-12-06T09:09:39.135Z,4.50
2018-12-06T09:12:07.967Z,3.90
2018-12-06T09:14:36.531Z,3.93
2018-12-06T09:17:05.112Z,4.40
2018-12-06T09:19:33.591Z,6.33
2018-12-06T09:22:02.114Z,5.70
2018-12-06T09:24:30.947Z,4.73
2018-12-06T09:26:59.496Z,3.87
2018-12-06T09:29:28.216Z,4.97
2018-12-06T09:31:56.785Z,5.80
2018-12-06T09:34:25.183Z,5.20
2018-12-06T09:36:53.837Z,3.90
2018-12-06T09:39:22.759Z,3.83
2018-12-06T09:41:51.296Z,3.47
2018-12-06T09:44:20.030Z,2.90
2018-12-06T09:46:48.531Z,3.17
2018-12-06T09:49:17.024Z,2.70
2018-12-06T09:51:45.740Z,2.77
2018-12-06T09:54:14.283Z,2.90
2018-12-06T09:56:42.927Z,2.90
2018-12-06T09:59:11.645Z,2.90
2018-12-06T10:01:40.279Z,2.87
2018-12-06T10:04:08.829Z,3.53
2018-12-06T10:06:37.473Z,3.73
2018-12-06T10:09:06.676Z,3.60
2018-12-06T10:11:35.618Z,2.50
2018-12-06T10:14:04.439Z,2.90
2018-12-06T10:16:33.272Z,3.00
2018-12-06T10:19:02.103Z,3.47
2018-12-06T10:21:30.740Z,3.60
2018-12-06T10:23:59.295Z,3.20
2018-12-06T10:26:28.009Z,3.23
2018-12-06T10:28:56.993Z,3.87
2018-12-06T10:31:25.594Z,3.30
2018-12-06T10:33:54.440Z,3.23
2018-12-06T10:36:23.141Z,3.60
2018-12-06T10:38:52.130Z,3.73
2018-12-06T10:41:20.764Z,3.37
2018-12-06T10:43:49.305Z,3.13
2018-12-06T10:46:20.440Z,3.40
2018-12-06T10:48:49.194Z,3.70
2018-12-06T10:51:35.794Z,3.87
2018-12-06T10:54:04.623Z,3.80
2018-12-06T10:56:33.193Z,6.53
2018-12-06T10:59:02.009Z,6.50
2018-12-06T11:04:38.880Z,4.13
2018-12-06T11:07:07.712Z,7.70
2018-12-06T11:09:36.218Z,4.20
2018-12-06T11:12:04.915Z,4.50
2018-12-06T11:14:33.605Z,4.40
2018-12-06T11:17:02.252Z,5.93
2018-12-06T11:19:30.888Z,5.83
2018-12-06T11:21:59.722Z,11.70
2018-12-06T11:24:28.370Z,4.87
2018-12-06T11:26:57.187Z,5.57
2018-12-06T11:29:26.021Z,5.30
2018-12-06T11:31:54.760Z,6.40
2018-12-06T11:34:23.487Z,6.43
2018-12-06T11:36:52.041Z,5.40
2018-12-06T11:39:20.680Z,4.50
2018-12-06T11:41:49.272Z,4.07
2018-12-06T11:44:17.937Z,4.97
2018-12-06T11:46:46.662Z,4.57
2018-12-06T11:49:15.665Z,4.10
2018-12-06T11:51:44.201Z,3.97
2018-12-06T11:54:12.962Z,3.87
2018-12-06T11:56:41.793Z,4.07
2018-12-06T11:59:10.399Z,2.30
2018-12-06T12:01:39.190Z,2.40
2018-12-06T12:04:07.895Z,2.60
2018-12-06T12:06:36.727Z,2.60
2018-12-06T12:09:07.625Z,2.57
2018-12-06T12:11:36.274Z,3.03
2018-12-06T12:14:05.390Z,2.20
2018-12-06T12:16:34.022Z,2.70
2018-12-06T12:19:02.854Z,2.77
2018-12-06T12:21:31.409Z,2.53
2018-12-06T12:24:00.174Z,2.50
2018-12-06T12:26:29.152Z,2.60
2018-12-06T12:28:57.704Z,2.60
2018-12-06T12:31:26.544Z,2.83
2018-12-06T12:33:55.360Z,3.13
2018-12-06T12:36:23.892Z,3.60
2018-12-06T12:38:52.525Z,3.40
2018-12-06T12:41:21.079Z,3.40
2018-12-06T12:43:49.671Z,2.73
2018-12-06T12:46:18.409Z,2.90
2018-12-06T12:48:47.066Z,2.80
2018-12-06T12:51:15.700Z,2.50
2018-12-06T12:53:44.253Z,2.50
2018-12-06T12:56:12.893Z,2.73
2018-12-06T12:58:42.004Z,3.10
2018-12-06T13:01:10.548Z,2.27
2018-12-06T13:03:39.188Z,2.60
2018-12-06T13:06:07.877Z,2.60
2018-12-06T13:08:36.542Z,2.47
2018-12-06T13:11:05.177Z,2.57
2018-12-06T13:13:34.008Z,2.90
2018-12-06T13:16:02.643Z,3.83
2018-12-06T13:18:31.355Z,3.13
2018-12-06T13:21:00.047Z,3.20
2018-12-06T13:23:28.746Z,3.00
2018-12-06T13:25:57.382Z,3.37
2018-12-06T13:28:26.213Z,3.20
2018-12-06T13:30:54.914Z,3.00
2018-12-06T13:33:23.593Z,2.80
2018-12-06T13:35:52.319Z,2.67
2018-12-06T13:38:20.872Z,3.07
2018-12-06T13:40:49.462Z,3.10
2018-12-06T13:43:18.207Z,2.70
2018-12-06T13:45:46.856Z,3.07
2018-12-06T13:48:15.451Z,3.17
2018-12-06T13:50:44.248Z,3.30
2018-12-06T13:53:12.887Z,3.10
2018-12-06T13:55:41.594Z,2.63
2018-12-06T13:58:10.135Z,2.77
2018-12-06T14:00:39.429Z,2.13
2018-12-06T14:03:08.483Z,2.47
2018-12-06T14:05:37.212Z,2.20
2018-12-06T14:08:06.025Z,2.43
2018-12-06T14:10:34.742Z,2.17
2018-12-06T14:13:03.417Z,2.20
2018-12-06T14:15:31.972Z,1.90
2018-12-06T14:18:00.553Z,2.20
2018-12-06T14:20:29.321Z,2.30
2018-12-06T14:22:58.307Z,2.70
2018-12-06T14:25:27.246Z,2.37
2018-12-06T14:27:56.229Z,2.67
2018-12-06T14:30:25.045Z,2.33
2018-12-06T14:32:53.679Z,2.40
2018-12-06T14:35:22.313Z,2.00
2018-12-06T14:37:50.949Z,2.50
2018-12-06T14:40:19.585Z,2.63
2018-12-06T14:42:48.011Z,2.67
2018-12-06T14:45:16.534Z,2.60
2018-12-06T14:47:45.167Z,2.53
2018-12-06T14:50:13.856Z,2.90
2018-12-06T14:52:42.568Z,2.33
2018-12-06T14:55:11.199Z,2.60
2018-12-06T14:57:40.030Z,2.47
2018-12-06T15:00:09.453Z,2.50
2018-12-06T15:02:38.183Z,2.93
2018-12-06T15:05:07.916Z,3.40
2018-12-06T15:07:36.517Z,2.60
2018-12-06T15:10:05.877Z,2.50
2018-12-06T15:12:34.466Z,2.80
2018-12-06T15:15:03.231Z,2.50
2018-12-06T15:17:31.865Z,2.70
2018-12-06T15:20:00.372Z,2.80
2018-12-06T15:22:29.135Z,2.67
2018-12-06T15:24:58.227Z,2.57
2018-12-06T15:27:27.453Z,2.90
2018-12-06T15:29:56.196Z,3.33
2018-12-06T15:32:24.761Z,2.70
2018-12-06T15:34:53.491Z,3.00
2018-12-06T15:37:22.316Z,2.60
2018-12-06T15:39:51.006Z,3.53
2018-12-06T15:42:19.771Z,2.73
2018-12-06T15:44:48.425Z,3.30
2018-12-06T15:47:16.976Z,3.57
2018-12-06T15:49:45.665Z,3.10
2018-12-06T15:52:14.331Z,1.90
2018-12-06T15:54:42.901Z,1.60
2018-12-06T15:57:11.601Z,1.40
2018-12-06T15:59:40.236Z,1.70
2018-12-06T16:02:09.068Z,1.90
2018-12-06T16:04:37.703Z,1.77
2018-12-06T16:07:06.445Z,1.43
2018-12-06T16:09:35.180Z,1.80
2018-12-06T16:12:04.127Z,3.00
2018-12-06T16:14:32.765Z,2.10
2018-12-06T16:17:01.472Z,2.47
2018-12-06T16:19:30.104Z,1.97
2018-12-06T16:21:58.740Z,2.60
2018-12-06T16:24:27.299Z,1.80
2018-12-06T16:26:55.741Z,2.13
2018-12-06T16:29:24.449Z,2.13
2018-12-06T16:31:53.281Z,2.37
2018-12-06T16:34:22.113Z,5.10
2018-12-06T16:36:50.824Z,2.53
2018-12-06T16:39:19.579Z,2.60
2018-12-06T16:41:48.217Z,3.70
2018-12-06T16:44:16.850Z,2.90
2018-12-06T16:46:45.411Z,2.27
2018-12-06T16:49:14.049Z,3.07
2018-12-06T16:51:42.755Z,2.80
2018-12-06T16:54:11.390Z,3.97
2018-12-06T16:56:39.994Z,3.07
2018-12-06T16:59:08.527Z,2.60
2018-12-06T17:01:37.425Z,2.43
2018-12-06T17:04:06.130Z,2.87
2018-12-06T17:06:34.878Z,3.23
2018-12-06T17:09:05.234Z,2.93
2018-12-06T17:11:34.200Z,5.13
2018-12-06T17:14:03.029Z,3.90
2018-12-06T17:16:31.860Z,3.47
2018-12-06T17:19:00.603Z,4.40
2018-12-06T17:21:29.328Z,4.40
2018-12-06T17:23:57.882Z,3.47
2018-12-06T17:26:26.587Z,3.33
2018-12-06T17:28:55.055Z,3.57
2018-12-06T17:31:23.540Z,3.67
2018-12-06T17:33:52.111Z,4.20
2018-12-06T17:36:20.657Z,4.47
2018-12-06T17:38:49.381Z,3.73
2018-12-06T17:41:18.015Z,5.33
2018-12-06T17:43:46.627Z,4.97
2018-12-06T17:46:15.166Z,4.80
2018-12-06T17:48:43.908Z,5.97
2018-12-06T17:51:12.522Z,5.27
2018-12-06T17:53:41.193Z,4.97
2018-12-06T17:56:09.753Z,5.07
2018-12-06T17:58:38.268Z,6.83
2018-12-06T18:01:06.832Z,5.70
2018-12-06T18:03:35.406Z,5.07
2018-12-06T18:06:04.063Z,4.40
2018-12-06T18:08:32.809Z,3.43
2018-12-06T18:11:01.706Z,3.00
2018-12-06T18:13:30.475Z,3.50
2018-12-06T18:15:59.109Z,4.33
2018-12-06T18:18:27.744Z,5.33
2018-12-06T18:20:56.176Z,5.77
2018-12-06T18:23:24.741Z,9.00
2018-12-06T18:25:53.452Z,8.90
2018-12-06T18:28:22.088Z,7.27
2018-12-06T18:30:50.636Z,6.50
2018-12-06T18:33:19.276Z,6.43
2018-12-06T18:35:47.994Z,5.87
2018-12-06T18:38:16.580Z,5.50
2018-12-06T18:40:45.264Z,3.90
2018-12-06T18:43:13.771Z,4.90
2018-12-06T18:45:42.340Z,4.50
2018-12-06T18:48:10.891Z,5.97
2018-12-06T18:50:40.082Z,6.50
2018-12-06T18:53:08.841Z,5.70
2018-12-06T18:55:37.435Z,8.40
2018-12-06T18:58:06.105Z,7.60
2018-12-06T19:00:34.622Z,8.70
2018-12-06T19:03:03.256Z,8.57
2018-12-06T19:05:32.010Z,6.87
2018-12-06T19:08:00.842Z,7.17
2018-12-06T19:10:29.477Z,29.33
2018-12-06T19:12:58.040Z,19.03
2018-12-06T19:15:26.630Z,11.53
2018-12-06T19:17:55.187Z,8.93
2018-12-06T19:20:23.822Z,14.13
2018-12-06T19:22:52.457Z,6.47
2018-12-06T19:25:21.015Z,4.80
2018-12-06T19:27:49.728Z,4.90
2018-12-06T19:30:18.298Z,4.57
2018-12-06T19:32:46.960Z,4.47
2018-12-06T19:35:15.634Z,5.60
2018-12-06T19:37:44.590Z,4.90
2018-12-06T19:40:13.367Z,7.93
2018-12-06T19:42:41.936Z,7.37
2018-12-06T19:45:10.661Z,5.73
2018-12-06T19:47:39.402Z,6.73
2018-12-06T19:50:08.428Z,12.60
2018-12-06T19:52:36.955Z,18.87
2018-12-06T19:55:06.394Z,4.97
2018-12-06T19:57:35.009Z,5.50
2018-12-06T20:00:03.756Z,4.63
2018-12-06T20:02:32.391Z,4.67
2018-12-06T20:05:01.026Z,4.00
2018-12-06T20:07:30.153Z,4.00
2018-12-06T20:09:58.954Z,4.37
2018-12-06T20:12:28.093Z,5.10
2018-12-06T20:14:57.238Z,5.57
2018-12-06T20:17:26.244Z,5.60
2018-12-06T20:19:54.743Z,4.90
2018-12-06T20:22:23.553Z,3.70
2018-12-06T20:24:52.566Z,3.30
2018-12-06T20:27:21.484Z,2.90
2018-12-06T20:29:50.827Z,2.33
2018-12-06T20:32:20.142Z,2.37
2018-12-06T20:34:49.172Z,3.63
2018-12-06T20:37:18.323Z,2.90
2018-12-06T20:39:47.322Z,2.43
2018-12-06T20:42:16.268Z,2.17
2018-12-06T20:44:45.631Z,2.00
2018-12-06T20:47:16.769Z,2.13
2018-12-06T20:49:45.855Z,2.00
2018-12-06T20:52:14.823Z,2.10
2018-12-06T20:54:43.656Z,2.07
2018-12-06T20:57:12.690Z,1.83
2018-12-06T20:59:41.621Z,2.27
2018-12-06T21:02:10.122Z,2.30
2018-12-06T21:04:38.890Z,2.37
2018-12-06T21:07:07.722Z,2.00
2018-12-06T21:09:36.357Z,2.10
2018-12-06T21:12:05.188Z,2.10
2018-12-06T21:14:33.945Z,2.20
2018-12-06T21:17:02.853Z,2.23
2018-12-06T21:19:31.679Z,2.20
2018-12-06T21:22:00.392Z,2.30
2018-12-06T21:24:29.153Z,2.37
2018-12-06T21:26:57.787Z,3.13
2018-12-06T21:29:26.422Z,2.60
2018-12-06T21:31:55.127Z,2.30
2018-12-06T21:34:23.891Z,2.87
2018-12-06T21:36:52.395Z,2.73
2018-12-06T21:39:21.072Z,2.77
2018-12-06T21:41:49.797Z,3.07
2018-12-06T21:44:18.431Z,4.50
2018-12-06T21:46:47.069Z,5.70
2018-12-06T21:49:15.635Z,7.40
2018-12-06T21:51:44.338Z,5.23
2018-12-06T21:54:13.038Z,4.30
2018-12-06T21:56:41.777Z,4.27
2018-12-06T21:59:10.367Z,4.10
2018-12-06T22:01:39.056Z,5.00
2018-12-06T22:04:07.713Z,6.33
2018-12-06T22:06:36.543Z,5.93
2018-12-06T22:09:07.148Z,4.97
2018-12-06T22:11:35.981Z,4.80
2018-12-06T22:14:04.735Z,3.70
2018-12-06T22:16:33.470Z,3.40
2018-12-06T22:19:01.958Z,3.83
2018-12-06T22:21:30.714Z,3.97
2018-12-06T22:23:59.349Z,3.47
2018-12-06T22:26:28.181Z,4.13
2018-12-06T22:28:56.797Z,3.73
2018-12-06T22:31:25.452Z,3.30
2018-12-06T22:33:54.678Z,3.20
2018-12-06T22:36:23.241Z,3.90
2018-12-06T22:38:51.814Z,3.70
2018-12-06T22:41:20.575Z,4.00
2018-12-06T22:43:49.135Z,3.63
2018-12-06T22:46:17.527Z,4.20
2018-12-06T22:48:46.292Z,4.40
2018-12-06T22:51:15.123Z,4.93
2018-12-06T22:53:43.759Z,4.60
2018-12-06T22:56:12.185Z,5.20
2018-12-06T22:58:41.030Z,5.77
2018-12-06T23:01:12.686Z,5.93
2018-12-06T23:03:41.447Z,6.77
2018-12-06T23:06:10.279Z,6.63
2018-12-06T23:08:38.890Z,6.83
2018-12-06T23:11:07.745Z,7.40
2018-12-06T23:13:36.379Z,7.27
2018-12-06T23:16:05.264Z,6.47
2018-12-06T23:18:34.239Z,7.20
2018-12-06T23:21:02.783Z,7.00
2018-12-06T23:23:31.877Z,6.70
2018-12-06T23:26:00.541Z,6.77
2018-12-06T23:28:29.307Z,6.57
2018-12-06T23:30:58.007Z,7.37
2018-12-06T23:33:31.934Z,6.87
2018-12-06T23:35:57.348Z,6.73
2018-12-06T23:38:26.075Z,6.73
2018-12-06T23:40:54.710Z,7.00
2018-12-06T23:43:23.148Z,6.27
2018-12-06T23:45:51.609Z,6.30
2018-12-06T23:48:20.156Z,6.87
2018-12-06T23:50:48.789Z,6.20
2018-12-06T23:53:17.454Z,6.37
2018-12-06T23:55:46.130Z,6.60
2018-12-06T23:58:14.763Z,6.00
